sensor_id;sensor_type;location;lat;lon;timestamp;P1;durP1;ratioP1;P2;durP2;ratioP2
22060;SDS011;11194;48.092;-1.382;2023-02-03T00:00:51;5.65;;;2.25;;
22060;SDS011;11194;48.092;-1.382;2023-02-03T00:03:17;5.00;;;2.10;;
22060;SDS011;11194;48.092;-1.382;2023-02-03T00:05:43;6.53;;;2.17;;
22060;SDS011;11194;48.092;-1.382;2023-02-03T00:08:11;3.83;;;2.45;;
22060;SDS011;11194;48.092;-1.382;2023-02-03T00:10:37;4.35;;;2.28;;
22060;SDS011;11194;48.092;-1.382;2023-02-03T00:13:04;4.15;;;2.10;;
22060;SDS011;11194;48.092;-1.382;2023-02-03T00:15:31;3.50;;;2.13;;
22060;SDS011;11194;48.092;-1.382;2023-02-03T00:17:57;3.75;;;1.92;;
22060;SDS011;11194;48.092;-1.382;2023-02-03T00:20:23;4.50;;;1.83;;
22060;SDS011;11194;48.092;-1.382;2023-02-03T00:22:49;5.60;;;2.22;;
22060;SDS011;11194;48.092;-1.382;2023-02-03T00:25:16;6.00;;;2.00;;
22060;SDS011;11194;48.092;-1.382;2023-02-03T00:27:42;5.55;;;2.22;;
22060;SDS011;11194;48.092;-1.382;2023-02-03T00:30:09;3.67;;;1.90;;
22060;SDS011;11194;48.092;-1.382;2023-02-03T00:32:36;4.38;;;2.28;;
22060;SDS011;11194;48.092;-1.382;2023-02-03T00:35:02;4.80;;;2.30;;
22060;SDS011;11194;48.092;-1.382;2023-02-03T00:37:28;3.53;;;2.25;;
22060;SDS011;11194;48.092;-1.382;2023-02-03T00:39:55;5.68;;;2.50;;
22060;SDS011;11194;48.092;-1.382;2023-02-03T00:42:21;3.65;;;1.67;;
22060;SDS011;11194;48.092;-1.382;2023-02-03T00:44:47;3.63;;;1.88;;
22060;SDS011;11194;48.092;-1.382;2023-02-03T00:47:13;6.45;;;2.20;;
22060;SDS011;11194;48.092;-1.382;2023-02-03T00:49:39;5.13;;;2.13;;
22060;SDS011;11194;48.092;-1.382;2023-02-03T00:52:05;3.28;;;1.67;;
22060;SDS011;11194;48.092;-1.382;2023-02-03T00:54:31;5.65;;;2.25;;
22060;SDS011;11194;48.092;-1.382;2023-02-03T00:56:57;4.85;;;2.25;;
22060;SDS011;11194;48.092;-1.382;2023-02-03T00:59:23;6.32;;;2.40;;
22060;SDS011;11194;48.092;-1.382;2023-02-03T01:01:49;4.78;;;2.10;;
22060;SDS011;11194;48.092;-1.382;2023-02-03T01:04:15;3.67;;;2.20;;
22060;SDS011;11194;48.092;-1.382;2023-02-03T01:06:41;5.93;;;2.10;;
22060;SDS011;11194;48.092;-1.382;2023-02-03T01:09:07;3.67;;;2.00;;
22060;SDS011;11194;48.092;-1.382;2023-02-03T01:11:33;5.85;;;1.88;;
22060;SDS011;11194;48.092;-1.382;2023-02-03T01:13:59;4.22;;;2.28;;
22060;SDS011;11194;48.092;-1.382;2023-02-03T01:16:26;3.17;;;2.17;;
22060;SDS011;11194;48.092;-1.382;2023-02-03T01:18:53;5.40;;;2.38;;
22060;SDS011;11194;48.092;-1.382;2023-02-03T01:21:21;2.92;;;1.80;;
22060;SDS011;11194;48.092;-1.382;2023-02-03T01:23:48;2.65;;;1.98;;
22060;SDS011;11194;48.092;-1.382;2023-02-03T01:26:17;2.13;;;1.73;;
22060;SDS011;11194;48.092;-1.382;2023-02-03T01:28:43;4.25;;;1.70;;
22060;SDS011;11194;48.092;-1.382;2023-02-03T01:31:13;6.72;;;1.70;;
22060;SDS011;11194;48.092;-1.382;2023-02-03T01:33:39;4.25;;;1.65;;
22060;SDS011;11194;48.092;-1.382;2023-02-03T01:36:08;5.57;;;1.85;;
22060;SDS011;11194;48.092;-1.382;2023-02-03T01:38:35;3.97;;;1.98;;
22060;SDS011;11194;48.092;-1.382;2023-02-03T01:41:02;3.05;;;1.50;;
22060;SDS011;11194;48.092;-1.382;2023-02-03T01:43:29;2.42;;;1.73;;
22060;SDS011;11194;48.092;-1.382;2023-02-03T01:45:56;2.83;;;1.98;;
22060;SDS011;11194;48.092;-1.382;2023-02-03T01:48:23;3.58;;;2.25;;
22060;SDS011;11194;48.092;-1.382;2023-02-03T01:50:49;4.63;;;2.08;;
22060;SDS011;11194;48.092;-1.382;2023-02-03T01:53:15;2.92;;;1.90;;
22060;SDS011;11194;48.092;-1.382;2023-02-03T01:55:41;4.38;;;2.00;;
22060;SDS011;11194;48.092;-1.382;2023-02-03T01:58:10;5.68;;;1.90;;
22060;SDS011;11194;48.092;-1.382;2023-02-03T02:00:37;3.15;;;1.88;;
22060;SDS011;11194;48.092;-1.382;2023-02-03T02:03:03;3.08;;;1.75;;
22060;SDS011;11194;48.092;-1.382;2023-02-03T02:05:31;4.53;;;1.60;;
22060;SDS011;11194;48.092;-1.382;2023-02-03T02:07:58;3.10;;;1.70;;
22060;SDS011;11194;48.092;-1.382;2023-02-03T02:10:25;4.40;;;1.77;;
22060;SDS011;11194;48.092;-1.382;2023-02-03T02:12:53;2.95;;;1.77;;
22060;SDS011;11194;48.092;-1.382;2023-02-03T02:15:21;3.13;;;1.90;;
22060;SDS011;11194;48.092;-1.382;2023-02-03T02:18:01;4.50;;;2.10;;
22060;SDS011;11194;48.092;-1.382;2023-02-03T02:20:32;4.57;;;1.88;;
22060;SDS011;11194;48.092;-1.382;2023-02-03T02:28:11;4.93;;;1.92;;
22060;SDS011;11194;48.092;-1.382;2023-02-03T05:02:46;2.10;;;1.60;;
22060;SDS011;11194;48.092;-1.382;2023-02-03T05:05:12;2.55;;;1.60;;
22060;SDS011;11194;48.092;-1.382;2023-02-03T05:07:38;2.33;;;1.50;;
22060;SDS011;11194;48.092;-1.382;2023-02-03T05:10:04;4.30;;;1.40;;
22060;SDS011;11194;48.092;-1.382;2023-02-03T05:12:30;3.13;;;1.50;;
22060;SDS011;11194;48.092;-1.382;2023-02-03T05:14:56;4.43;;;1.58;;
22060;SDS011;11194;48.092;-1.382;2023-02-03T05:17:22;3.20;;;1.50;;
22060;SDS011;11194;48.092;-1.382;2023-02-03T05:19:48;3.92;;;1.60;;
22060;SDS011;11194;48.092;-1.382;2023-02-03T05:22:14;4.47;;;1.58;;
22060;SDS011;11194;48.092;-1.382;2023-02-03T05:24:40;2.22;;;1.20;;
22060;SDS011;11194;48.092;-1.382;2023-02-03T05:27:06;2.53;;;1.40;;
22060;SDS011;11194;48.092;-1.382;2023-02-03T05:29:32;2.85;;;1.23;;
22060;SDS011;11194;48.092;-1.382;2023-02-03T05:31:58;3.30;;;1.40;;
22060;SDS011;11194;48.092;-1.382;2023-02-03T05:34:24;2.42;;;1.20;;
22060;SDS011;11194;48.092;-1.382;2023-02-03T05:36:51;3.08;;;1.15;;
22060;SDS011;11194;48.092;-1.382;2023-02-03T05:39:17;2.05;;;1.38;;
22060;SDS011;11194;48.092;-1.382;2023-02-03T05:41:43;1.83;;;1.05;;
22060;SDS011;11194;48.092;-1.382;2023-02-03T05:44:21;1.20;;;1.00;;
22060;SDS011;11194;48.092;-1.382;2023-02-03T05:46:48;4.40;;;1.20;;
22060;SDS011;11194;48.092;-1.382;2023-02-03T05:49:15;2.20;;;1.10;;
22060;SDS011;11194;48.092;-1.382;2023-02-03T05:51:41;3.33;;;1.20;;
22060;SDS011;11194;48.092;-1.382;2023-02-03T05:54:07;5.32;;;1.50;;
22060;SDS011;11194;48.092;-1.382;2023-02-03T05:56:33;4.00;;;1.23;;
22060;SDS011;11194;48.092;-1.382;2023-02-03T05:59:00;1.92;;;1.25;;
22060;SDS011;11194;48.092;-1.382;2023-02-03T06:01:26;3.38;;;1.33;;
22060;SDS011;11194;48.092;-1.382;2023-02-03T06:03:52;2.28;;;1.27;;
22060;SDS011;11194;48.092;-1.382;2023-02-03T06:06:18;3.60;;;1.38;;
22060;SDS011;11194;48.092;-1.382;2023-02-03T06:08:44;2.83;;;1.30;;
22060;SDS011;11194;48.092;-1.382;2023-02-03T06:11:10;1.95;;;1.38;;
22060;SDS011;11194;48.092;-1.382;2023-02-03T06:13:36;2.00;;;1.38;;
22060;SDS011;11194;48.092;-1.382;2023-02-03T06:16:03;2.45;;;1.40;;
22060;SDS011;11194;48.092;-1.382;2023-02-03T06:18:29;3.25;;;1.38;;
22060;SDS011;11194;48.092;-1.382;2023-02-03T06:20:55;2.38;;;1.33;;
22060;SDS011;11194;48.092;-1.382;2023-02-03T06:23:21;3.42;;;1.40;;
22060;SDS011;11194;48.092;-1.382;2023-02-03T06:25:48;4.97;;;1.50;;
22060;SDS011;11194;48.092;-1.382;2023-02-03T06:28:14;1.45;;;1.20;;
22060;SDS011;11194;48.092;-1.382;2023-02-03T06:30:40;1.95;;;1.60;;
22060;SDS011;11194;48.092;-1.382;2023-02-03T06:33:07;2.38;;;1.60;;
22060;SDS011;11194;48.092;-1.382;2023-02-03T06:35:33;2.50;;;1.50;;
22060;SDS011;11194;48.092;-1.382;2023-02-03T06:37:59;2.05;;;1.65;;
22060;SDS011;11194;48.092;-1.382;2023-02-03T06:40:25;2.63;;;1.58;;
22060;SDS011;11194;48.092;-1.382;2023-02-03T06:42:51;3.25;;;1.73;;
22060;SDS011;11194;48.092;-1.382;2023-02-03T06:45:18;4.10;;;1.80;;
22060;SDS011;11194;48.092;-1.382;2023-02-03T06:47:44;3.88;;;1.73;;
22060;SDS011;11194;48.092;-1.382;2023-02-03T06:50:11;5.85;;;2.15;;
22060;SDS011;11194;48.092;-1.382;2023-02-03T06:52:37;4.00;;;1.80;;
22060;SDS011;11194;48.092;-1.382;2023-02-03T06:55:03;4.28;;;1.85;;
22060;SDS011;11194;48.092;-1.382;2023-02-03T06:57:30;2.97;;;1.75;;
22060;SDS011;11194;48.092;-1.382;2023-02-03T06:59:56;4.00;;;1.90;;
22060;SDS011;11194;48.092;-1.382;2023-02-03T07:02:22;1.85;;;1.40;;
22060;SDS011;11194;48.092;-1.382;2023-02-03T07:04:48;4.40;;;1.80;;
22060;SDS011;11194;48.092;-1.382;2023-02-03T07:07:14;3.38;;;1.83;;
22060;SDS011;11194;48.092;-1.382;2023-02-03T07:09:41;2.45;;;1.60;;
22060;SDS011;11194;48.092;-1.382;2023-02-03T07:12:07;4.60;;;1.80;;
22060;SDS011;11194;48.092;-1.382;2023-02-03T07:14:33;2.03;;;1.50;;
22060;SDS011;11194;48.092;-1.382;2023-02-03T07:29:52;9.07;;;5.38;;
22060;SDS011;11194;48.092;-1.382;2023-02-03T07:32:18;10.57;;;6.50;;
22060;SDS011;11194;48.092;-1.382;2023-02-03T07:34:44;10.48;;;6.10;;
22060;SDS011;11194;48.092;-1.382;2023-02-03T07:37:10;10.63;;;5.55;;
22060;SDS011;11194;48.092;-1.382;2023-02-03T07:39:36;9.07;;;4.18;;
22060;SDS011;11194;48.092;-1.382;2023-02-03T07:42:02;11.90;;;5.82;;
22060;SDS011;11194;48.092;-1.382;2023-02-03T07:44:28;14.27;;;8.55;;
22060;SDS011;11194;48.092;-1.382;2023-02-03T07:46:54;8.85;;;4.18;;
22060;SDS011;11194;48.092;-1.382;2023-02-03T07:49:20;2.88;;;2.08;;
22060;SDS011;11194;48.092;-1.382;2023-02-03T07:51:46;4.68;;;2.13;;
22060;SDS011;11194;48.092;-1.382;2023-02-03T07:54:12;4.28;;;1.70;;
22060;SDS011;11194;48.092;-1.382;2023-02-03T07:56:39;5.97;;;1.80;;
22060;SDS011;11194;48.092;-1.382;2023-02-03T07:59:05;3.22;;;1.60;;
22060;SDS011;11194;48.092;-1.382;2023-02-03T08:01:34;5.60;;;1.70;;
22060;SDS011;11194;48.092;-1.382;2023-02-03T08:04:00;3.47;;;1.80;;
22060;SDS011;11194;48.092;-1.382;2023-02-03T08:06:29;4.28;;;2.47;;
22060;SDS011;11194;48.092;-1.382;2023-02-03T08:08:55;7.88;;;2.97;;
22060;SDS011;11194;48.092;-1.382;2023-02-03T08:11:21;3.15;;;2.63;;
22060;SDS011;11194;48.092;-1.382;2023-02-03T08:13:47;3.72;;;2.10;;
22060;SDS011;11194;48.092;-1.382;2023-02-03T08:16:13;3.42;;;2.58;;
22060;SDS011;11194;48.092;-1.382;2023-02-03T08:18:40;4.40;;;2.50;;
22060;SDS011;11194;48.092;-1.382;2023-02-03T08:21:06;4.40;;;2.67;;
22060;SDS011;11194;48.092;-1.382;2023-02-03T08:23:32;3.75;;;2.20;;
22060;SDS011;11194;48.092;-1.382;2023-02-03T08:25:58;4.38;;;2.30;;
22060;SDS011;11194;48.092;-1.382;2023-02-03T08:28:24;6.18;;;2.67;;
22060;SDS011;11194;48.092;-1.382;2023-02-03T08:30:50;4.45;;;2.95;;
22060;SDS011;11194;48.092;-1.382;2023-02-03T08:33:16;4.85;;;3.50;;
22060;SDS011;11194;48.092;-1.382;2023-02-03T08:35:48;2.53;;;2.20;;
22060;SDS011;11194;48.092;-1.382;2023-02-03T08:38:14;3.58;;;2.38;;
22060;SDS011;11194;48.092;-1.382;2023-02-03T08:40:40;4.88;;;2.55;;
22060;SDS011;11194;48.092;-1.382;2023-02-03T08:43:06;4.90;;;2.20;;
22060;SDS011;11194;48.092;-1.382;2023-02-03T08:45:33;5.75;;;2.35;;
22060;SDS011;11194;48.092;-1.382;2023-02-03T08:47:59;2.78;;;1.88;;
22060;SDS011;11194;48.092;-1.382;2023-02-03T08:50:25;3.20;;;2.40;;
22060;SDS011;11194;48.092;-1.382;2023-02-03T08:52:51;3.60;;;1.98;;
22060;SDS011;11194;48.092;-1.382;2023-02-03T08:55:17;3.58;;;2.30;;
22060;SDS011;11194;48.092;-1.382;2023-02-03T08:57:43;3.80;;;2.45;;
22060;SDS011;11194;48.092;-1.382;2023-02-03T09:00:10;3.75;;;1.90;;
22060;SDS011;11194;48.092;-1.382;2023-02-03T09:02:36;4.25;;;2.30;;
22060;SDS011;11194;48.092;-1.382;2023-02-03T09:05:02;6.43;;;2.20;;
22060;SDS011;11194;48.092;-1.382;2023-02-03T09:07:28;3.55;;;2.20;;
22060;SDS011;11194;48.092;-1.382;2023-02-03T09:09:54;3.53;;;2.33;;
22060;SDS011;11194;48.092;-1.382;2023-02-03T09:12:20;3.42;;;2.25;;
22060;SDS011;11194;48.092;-1.382;2023-02-03T09:14:46;4.53;;;2.50;;
22060;SDS011;11194;48.092;-1.382;2023-02-03T09:17:12;5.85;;;2.40;;
22060;SDS011;11194;48.092;-1.382;2023-02-03T09:19:38;4.45;;;2.17;;
22060;SDS011;11194;48.092;-1.382;2023-02-03T09:22:04;5.40;;;2.50;;
22060;SDS011;11194;48.092;-1.382;2023-02-03T09:24:30;3.42;;;2.15;;
22060;SDS011;11194;48.092;-1.382;2023-02-03T09:26:57;3.67;;;2.17;;
22060;SDS011;11194;48.092;-1.382;2023-02-03T09:29:24;6.03;;;2.38;;
22060;SDS011;11194;48.092;-1.382;2023-02-03T09:31:51;4.32;;;2.28;;
22060;SDS011;11194;48.092;-1.382;2023-02-03T09:34:20;3.92;;;1.90;;
22060;SDS011;11194;48.092;-1.382;2023-02-03T09:36:46;3.38;;;2.10;;
22060;SDS011;11194;48.092;-1.382;2023-02-03T09:39:12;4.80;;;2.70;;
22060;SDS011;11194;48.092;-1.382;2023-02-03T09:41:43;5.88;;;3.90;;
22060;SDS011;11194;48.092;-1.382;2023-02-03T09:46:55;4.93;;;2.97;;
22060;SDS011;11194;48.092;-1.382;2023-02-03T09:49:30;4.13;;;2.50;;
22060;SDS011;11194;48.092;-1.382;2023-02-03T09:54:28;4.63;;;2.63;;
22060;SDS011;11194;48.092;-1.382;2023-02-03T09:56:58;3.53;;;2.40;;
22060;SDS011;11194;48.092;-1.382;2023-02-03T09:59:25;4.38;;;2.70;;
22060;SDS011;11194;48.092;-1.382;2023-02-03T10:01:59;4.25;;;2.60;;
22060;SDS011;11194;48.092;-1.382;2023-02-03T10:07:08;3.28;;;2.50;;
22060;SDS011;11194;48.092;-1.382;2023-02-03T10:14:50;3.67;;;2.42;;
22060;SDS011;11194;48.092;-1.382;2023-02-03T10:17:23;3.20;;;2.20;;
22060;SDS011;11194;48.092;-1.382;2023-02-03T10:19:55;3.58;;;2.03;;
22060;SDS011;11194;48.092;-1.382;2023-02-03T10:22:26;4.78;;;2.33;;
22060;SDS011;11194;48.092;-1.382;2023-02-03T10:25:15;7.15;;;2.50;;
22060;SDS011;11194;48.092;-1.382;2023-02-03T10:27:40;5.88;;;2.60;;
22060;SDS011;11194;48.092;-1.382;2023-02-03T10:30:16;4.90;;;2.22;;
22060;SDS011;11194;48.092;-1.382;2023-02-03T10:32:44;5.80;;;2.30;;
22060;SDS011;11194;48.092;-1.382;2023-02-03T10:35:11;3.00;;;2.20;;
22060;SDS011;11194;48.092;-1.382;2023-02-03T10:37:44;3.40;;;2.60;;
22060;SDS011;11194;48.092;-1.382;2023-02-03T10:40:13;5.43;;;2.35;;
22060;SDS011;11194;48.092;-1.382;2023-02-03T10:42:40;3.40;;;2.25;;
22060;SDS011;11194;48.092;-1.382;2023-02-03T10:45:26;5.22;;;2.30;;
22060;SDS011;11194;48.092;-1.382;2023-02-03T10:47:55;4.63;;;2.28;;
22060;SDS011;11194;48.092;-1.382;2023-02-03T10:50:23;3.35;;;2.47;;
22060;SDS011;11194;48.092;-1.382;2023-02-03T10:53:17;3.33;;;2.20;;
22060;SDS011;11194;48.092;-1.382;2023-02-03T10:55:41;2.83;;;2.35;;
22060;SDS011;11194;48.092;-1.382;2023-02-03T10:58:10;3.13;;;2.55;;
22060;SDS011;11194;48.092;-1.382;2023-02-03T11:00:39;3.83;;;2.70;;
22060;SDS011;11194;48.092;-1.382;2023-02-03T11:03:06;3.50;;;2.50;;
22060;SDS011;11194;48.092;-1.382;2023-02-03T11:05:33;2.50;;;2.03;;
22060;SDS011;11194;48.092;-1.382;2023-02-03T11:07:59;2.03;;;1.77;;
22060;SDS011;11194;48.092;-1.382;2023-02-03T11:15:45;4.10;;;2.13;;
22060;SDS011;11194;48.092;-1.382;2023-02-03T11:18:26;2.47;;;1.80;;
22060;SDS011;11194;48.092;-1.382;2023-02-03T11:20:57;2.70;;;2.30;;
22060;SDS011;11194;48.092;-1.382;2023-02-03T11:23:23;3.83;;;2.40;;
22060;SDS011;11194;48.092;-1.382;2023-02-03T11:25:50;4.68;;;2.28;;
22060;SDS011;11194;48.092;-1.382;2023-02-03T11:28:16;2.40;;;2.20;;
22060;SDS011;11194;48.092;-1.382;2023-02-03T11:30:42;3.95;;;2.20;;
22060;SDS011;11194;48.092;-1.382;2023-02-03T11:33:16;2.42;;;1.75;;
22060;SDS011;11194;48.092;-1.382;2023-02-03T11:35:53;2.55;;;1.88;;
22060;SDS011;11194;48.092;-1.382;2023-02-03T11:38:33;2.88;;;2.03;;
22060;SDS011;11194;48.092;-1.382;2023-02-03T11:41:08;4.45;;;2.40;;
22060;SDS011;11194;48.092;-1.382;2023-02-03T11:43:39;2.85;;;2.03;;
22060;SDS011;11194;48.092;-1.382;2023-02-03T11:46:05;2.72;;;2.08;;
22060;SDS011;11194;48.092;-1.382;2023-02-03T11:48:36;3.05;;;1.83;;
22060;SDS011;11194;48.092;-1.382;2023-02-03T12:01:19;3.38;;;1.90;;
22060;SDS011;11194;48.092;-1.382;2023-02-03T12:09:04;2.78;;;2.15;;
22060;SDS011;11194;48.092;-1.382;2023-02-03T12:16:58;3.85;;;2.55;;
22060;SDS011;11194;48.092;-1.382;2023-02-03T12:19:38;5.50;;;2.30;;
22060;SDS011;11194;48.092;-1.382;2023-02-03T12:22:16;2.65;;;2.00;;
22060;SDS011;11194;48.092;-1.382;2023-02-03T12:30:19;3.50;;;2.05;;
22060;SDS011;11194;48.092;-1.382;2023-02-03T12:32:51;2.20;;;1.92;;
22060;SDS011;11194;48.092;-1.382;2023-02-03T12:38:11;2.90;;;2.08;;
22060;SDS011;11194;48.092;-1.382;2023-02-03T12:40:52;3.33;;;2.00;;
22060;SDS011;11194;48.092;-1.382;2023-02-03T12:43:33;2.72;;;1.73;;
22060;SDS011;11194;48.092;-1.382;2023-02-03T12:46:21;3.67;;;2.00;;
22060;SDS011;11194;48.092;-1.382;2023-02-03T12:51:46;2.92;;;1.80;;
22060;SDS011;11194;48.092;-1.382;2023-02-03T12:56:43;3.80;;;2.50;;
22060;SDS011;11194;48.092;-1.382;2023-02-03T12:59:13;3.30;;;2.30;;
22060;SDS011;11194;48.092;-1.382;2023-02-03T13:01:43;3.67;;;2.10;;
22060;SDS011;11194;48.092;-1.382;2023-02-03T13:06:42;2.63;;;2.00;;
22060;SDS011;11194;48.092;-1.382;2023-02-03T13:09:17;2.97;;;2.10;;
22060;SDS011;11194;48.092;-1.382;2023-02-03T13:11:53;3.70;;;2.17;;
22060;SDS011;11194;48.092;-1.382;2023-02-03T13:14:27;3.90;;;2.33;;
22060;SDS011;11194;48.092;-1.382;2023-02-03T13:16:57;3.00;;;2.20;;
22060;SDS011;11194;48.092;-1.382;2023-02-03T13:19:26;4.47;;;2.80;;
22060;SDS011;11194;48.092;-1.382;2023-02-03T13:21:54;5.75;;;2.30;;
22060;SDS011;11194;48.092;-1.382;2023-02-03T13:24:21;5.28;;;2.67;;
22060;SDS011;11194;48.092;-1.382;2023-02-03T13:27:00;3.80;;;2.30;;
22060;SDS011;11194;48.092;-1.382;2023-02-03T13:40:16;2.88;;;2.30;;
22060;SDS011;11194;48.092;-1.382;2023-02-03T13:42:51;2.70;;;2.20;;
22060;SDS011;11194;48.092;-1.382;2023-02-03T13:47:48;4.18;;;2.50;;
22060;SDS011;11194;48.092;-1.382;2023-02-03T13:50:20;3.97;;;2.45;;
22060;SDS011;11194;48.092;-1.382;2023-02-03T13:53:00;3.92;;;2.50;;
22060;SDS011;11194;48.092;-1.382;2023-02-03T13:58:31;3.15;;;2.20;;
22060;SDS011;11194;48.092;-1.382;2023-02-03T14:00:58;3.17;;;2.20;;
22060;SDS011;11194;48.092;-1.382;2023-02-03T14:05:55;3.13;;;2.50;;
22060;SDS011;11194;48.092;-1.382;2023-02-03T14:13:38;2.10;;;1.50;;
22060;SDS011;11194;48.092;-1.382;2023-02-03T14:16:21;1.88;;;1.40;;
22060;SDS011;11194;48.092;-1.382;2023-02-03T14:18:47;1.52;;;1.30;;
22060;SDS011;11194;48.092;-1.382;2023-02-03T14:21:18;1.60;;;1.50;;
22060;SDS011;11194;48.092;-1.382;2023-02-03T14:23:46;2.40;;;1.88;;
22060;SDS011;11194;48.092;-1.382;2023-02-03T14:26:14;2.75;;;1.88;;
22060;SDS011;11194;48.092;-1.382;2023-02-03T14:28:41;2.50;;;1.60;;
22060;SDS011;11194;48.092;-1.382;2023-02-03T14:31:21;1.48;;;1.38;;
22060;SDS011;11194;48.092;-1.382;2023-02-03T14:36:26;2.20;;;1.58;;
22060;SDS011;11194;48.092;-1.382;2023-02-03T14:38:54;2.17;;;1.52;;
22060;SDS011;11194;48.092;-1.382;2023-02-03T14:41:23;2.17;;;1.30;;
22060;SDS011;11194;48.092;-1.382;2023-02-03T14:44:02;1.70;;;1.58;;
22060;SDS011;11194;48.092;-1.382;2023-02-03T14:57:00;5.68;;;2.00;;
22060;SDS011;11194;48.092;-1.382;2023-02-03T14:59:44;2.03;;;1.45;;
22060;SDS011;11194;48.092;-1.382;2023-02-03T15:04:42;5.72;;;2.10;;
22060;SDS011;11194;48.092;-1.382;2023-02-03T15:07:18;2.40;;;1.92;;
22060;SDS011;11194;48.092;-1.382;2023-02-03T15:09:55;3.70;;;2.10;;
22060;SDS011;11194;48.092;-1.382;2023-02-03T15:12:22;2.35;;;1.90;;
22060;SDS011;11194;48.092;-1.382;2023-02-03T15:14:49;3.35;;;2.58;;
22060;SDS011;11194;48.092;-1.382;2023-02-03T15:19:44;2.70;;;2.05;;
22060;SDS011;11194;48.092;-1.382;2023-02-03T15:22:20;3.80;;;2.05;;
22060;SDS011;11194;48.092;-1.382;2023-02-03T15:24:47;1.63;;;1.42;;
22060;SDS011;11194;48.092;-1.382;2023-02-03T15:27:24;4.00;;;1.90;;
22060;SDS011;11194;48.092;-1.382;2023-02-03T15:29:52;2.13;;;1.75;;
22060;SDS011;11194;48.092;-1.382;2023-02-03T15:34:47;3.78;;;1.70;;
22060;SDS011;11194;48.092;-1.382;2023-02-03T15:37:16;2.08;;;1.88;;
22060;SDS011;11194;48.092;-1.382;2023-02-03T15:39:45;2.72;;;2.00;;
22060;SDS011;11194;48.092;-1.382;2023-02-03T15:47:57;2.42;;;1.98;;
22060;SDS011;11194;48.092;-1.382;2023-02-03T15:52:50;4.05;;;1.80;;
22060;SDS011;11194;48.092;-1.382;2023-02-03T15:57:53;4.35;;;2.25;;
22060;SDS011;11194;48.092;-1.382;2023-02-03T16:02:55;2.35;;;1.95;;
22060;SDS011;11194;48.092;-1.382;2023-02-03T16:05:29;2.03;;;1.80;;
22060;SDS011;11194;48.092;-1.382;2023-02-03T16:07:56;2.65;;;2.20;;
22060;SDS011;11194;48.092;-1.382;2023-02-03T16:10:29;2.85;;;2.00;;
22060;SDS011;11194;48.092;-1.382;2023-02-03T16:15:41;2.70;;;2.10;;
22060;SDS011;11194;48.092;-1.382;2023-02-03T16:18:16;2.88;;;1.90;;
22060;SDS011;11194;48.092;-1.382;2023-02-03T16:20:49;2.75;;;1.65;;
22060;SDS011;11194;48.092;-1.382;2023-02-03T16:23:17;3.92;;;2.55;;
22060;SDS011;11194;48.092;-1.382;2023-02-03T16:25:43;2.42;;;1.88;;
22060;SDS011;11194;48.092;-1.382;2023-02-03T16:28:25;2.55;;;1.95;;
22060;SDS011;11194;48.092;-1.382;2023-02-03T16:31:17;2.88;;;2.05;;
22060;SDS011;11194;48.092;-1.382;2023-02-03T16:34:13;3.72;;;2.08;;
22060;SDS011;11194;48.092;-1.382;2023-02-03T16:36:59;2.70;;;2.00;;
22060;SDS011;11194;48.092;-1.382;2023-02-03T16:39:44;3.20;;;2.17;;
22060;SDS011;11194;48.092;-1.382;2023-02-03T16:42:36;3.10;;;2.30;;
22060;SDS011;11194;48.092;-1.382;2023-02-03T16:45:22;4.63;;;2.50;;
22060;SDS011;11194;48.092;-1.382;2023-02-03T16:48:08;2.38;;;2.15;;
22060;SDS011;11194;48.092;-1.382;2023-02-03T16:50:53;3.53;;;2.72;;
22060;SDS011;11194;48.092;-1.382;2023-02-03T16:53:29;2.63;;;2.40;;
22060;SDS011;11194;48.092;-1.382;2023-02-03T16:55:57;5.10;;;3.35;;
22060;SDS011;11194;48.092;-1.382;2023-02-03T16:58:23;6.97;;;5.05;;
22060;SDS011;11194;48.092;-1.382;2023-02-03T17:00:50;7.18;;;6.07;;
22060;SDS011;11194;48.092;-1.382;2023-02-03T17:03:17;6.43;;;4.88;;
22060;SDS011;11194;48.092;-1.382;2023-02-03T17:05:44;6.30;;;3.70;;
22060;SDS011;11194;48.092;-1.382;2023-02-03T17:08:11;4.38;;;3.72;;
22060;SDS011;11194;48.092;-1.382;2023-02-03T17:10:39;5.43;;;3.88;;
22060;SDS011;11194;48.092;-1.382;2023-02-03T17:13:05;4.32;;;3.95;;
22060;SDS011;11194;48.092;-1.382;2023-02-03T17:15:32;4.13;;;3.63;;
22060;SDS011;11194;48.092;-1.382;2023-02-03T17:18:00;3.45;;;2.97;;
22060;SDS011;11194;48.092;-1.382;2023-02-03T17:20:27;4.75;;;3.35;;
22060;SDS011;11194;48.092;-1.382;2023-02-03T17:22:53;4.70;;;3.75;;
22060;SDS011;11194;48.092;-1.382;2023-02-03T17:25:20;4.63;;;4.20;;
22060;SDS011;11194;48.092;-1.382;2023-02-03T17:27:46;4.30;;;3.90;;
22060;SDS011;11194;48.092;-1.382;2023-02-03T17:30:13;5.07;;;4.03;;
22060;SDS011;11194;48.092;-1.382;2023-02-03T17:32:39;4.53;;;3.70;;
22060;SDS011;11194;48.092;-1.382;2023-02-03T17:35:05;4.95;;;4.45;;
22060;SDS011;11194;48.092;-1.382;2023-02-03T17:37:32;4.18;;;3.75;;
22060;SDS011;11194;48.092;-1.382;2023-02-03T17:39:58;5.75;;;4.30;;
22060;SDS011;11194;48.092;-1.382;2023-02-03T17:42:24;5.60;;;4.72;;
22060;SDS011;11194;48.092;-1.382;2023-02-03T17:44:50;6.25;;;5.32;;
22060;SDS011;11194;48.092;-1.382;2023-02-03T17:47:19;5.97;;;5.47;;
22060;SDS011;11194;48.092;-1.382;2023-02-03T17:49:49;7.50;;;5.75;;
22060;SDS011;11194;48.092;-1.382;2023-02-03T17:52:18;7.18;;;6.20;;
22060;SDS011;11194;48.092;-1.382;2023-02-03T17:54:45;7.50;;;5.85;;
22060;SDS011;11194;48.092;-1.382;2023-02-03T17:57:11;7.40;;;6.70;;
22060;SDS011;11194;48.092;-1.382;2023-02-03T17:59:37;6.78;;;6.13;;
22060;SDS011;11194;48.092;-1.382;2023-02-03T18:02:03;6.95;;;6.20;;
22060;SDS011;11194;48.092;-1.382;2023-02-03T18:04:30;6.35;;;5.82;;
22060;SDS011;11194;48.092;-1.382;2023-02-03T18:06:56;7.07;;;6.38;;
22060;SDS011;11194;48.092;-1.382;2023-02-03T18:09:22;7.20;;;6.50;;
22060;SDS011;11194;48.092;-1.382;2023-02-03T18:11:48;6.75;;;6.15;;
22060;SDS011;11194;48.092;-1.382;2023-02-03T18:14:23;8.65;;;6.85;;
22060;SDS011;11194;48.092;-1.382;2023-02-03T18:16:52;9.30;;;7.15;;
22060;SDS011;11194;48.092;-1.382;2023-02-03T18:19:18;9.05;;;8.10;;
22060;SDS011;11194;48.092;-1.382;2023-02-03T18:21:45;9.38;;;8.43;;
22060;SDS011;11194;48.092;-1.382;2023-02-03T18:24:12;8.02;;;7.20;;
22060;SDS011;11194;48.092;-1.382;2023-02-03T18:26:48;9.02;;;8.05;;
22060;SDS011;11194;48.092;-1.382;2023-02-03T18:29:15;9.43;;;8.63;;
22060;SDS011;11194;48.092;-1.382;2023-02-03T18:31:42;9.73;;;8.82;;
22060;SDS011;11194;48.092;-1.382;2023-02-03T18:34:08;9.88;;;9.07;;
22060;SDS011;11194;48.092;-1.382;2023-02-03T18:36:35;10.32;;;9.43;;
22060;SDS011;11194;48.092;-1.382;2023-02-03T18:39:01;9.35;;;8.50;;
22060;SDS011;11194;48.092;-1.382;2023-02-03T18:41:27;10.30;;;9.25;;
22060;SDS011;11194;48.092;-1.382;2023-02-03T18:43:53;11.48;;;10.38;;
22060;SDS011;11194;48.092;-1.382;2023-02-03T18:46:26;11.30;;;10.20;;
22060;SDS011;11194;48.092;-1.382;2023-02-03T18:48:53;11.48;;;10.30;;
22060;SDS011;11194;48.092;-1.382;2023-02-03T18:51:20;12.80;;;11.13;;
22060;SDS011;11194;48.092;-1.382;2023-02-03T18:53:54;10.98;;;9.98;;
22060;SDS011;11194;48.092;-1.382;2023-02-03T18:56:22;9.48;;;8.57;;
22060;SDS011;11194;48.092;-1.382;2023-02-03T18:58:49;9.75;;;8.85;;
22060;SDS011;11194;48.092;-1.382;2023-02-03T19:03:47;11.38;;;10.25;;
22060;SDS011;11194;48.092;-1.382;2023-02-03T19:06:13;12.20;;;11.00;;
22060;SDS011;11194;48.092;-1.382;2023-02-03T19:08:39;12.25;;;11.05;;
22060;SDS011;11194;48.092;-1.382;2023-02-03T19:11:06;11.57;;;10.55;;
22060;SDS011;11194;48.092;-1.382;2023-02-03T19:13:32;10.13;;;9.20;;
22060;SDS011;11194;48.092;-1.382;2023-02-03T19:15:58;11.30;;;10.10;;
22060;SDS011;11194;48.092;-1.382;2023-02-03T19:18:26;9.85;;;8.90;;
22060;SDS011;11194;48.092;-1.382;2023-02-03T19:20:54;10.07;;;9.18;;
22060;SDS011;11194;48.092;-1.382;2023-02-03T19:23:21;10.75;;;9.75;;
22060;SDS011;11194;48.092;-1.382;2023-02-03T19:25:50;12.45;;;11.15;;
22060;SDS011;11194;48.092;-1.382;2023-02-03T19:28:17;11.57;;;10.52;;
22060;SDS011;11194;48.092;-1.382;2023-02-03T19:30:43;11.50;;;10.43;;